Time;durP1;ratioP1;P1;durP2;ratioP2;P2;SDS_P1;SDS_P2;PMS_P1;PMS_P2;Temp;Humidity;BMP_temperature;BMP_pressure;BME280_temperature;BME280_humidity;BME280_pressure;Samples;Min_cycle;Max_cycle;Signal;HPM_P1;HPM_P2
2022/11/01 00:01:33;;;;;;;30.25;18.45;;;12.50;99.90;;;;;;5010396;28;20404;-49
2022/11/01 00:03:58;;;;;;;29.98;17.58;;;12.50;99.90;;;;;;5022489;28;20072;-49
2022/11/01 00:06:24;;;;;;;30.05;17.55;;;12.40;99.90;;;;;;5021924;28;20025;-51
2022/11/01 00:08:50;;;;;;;23.73;17.30;;;12.40;99.90;;;;;;5019781;28;20026;-47
2022/11/01 00:11:17;;;;;;;25.55;16.60;;;12.50;99.90;;;;;;5026494;28;20018;-48
2022/11/01 00:13:47;;;;;;;25.13;15.90;;;12.50;99.90;;;;;;5019625;28;20113;-49
2022/11/01 00:16:14;;;;;;;31.40;17.20;;;12.40;99.90;;;;;;5019268;28;20104;-47
2022/11/01 00:18:40;;;;;;;27.08;16.88;;;12.50;99.90;;;;;;5020879;28;20025;-49
2022/11/01 00:21:06;;;;;;;25.23;15.63;;;12.50;99.90;;;;;;5021197;28;20097;-47
2022/11/01 00:23:32;;;;;;;26.30;16.77;;;12.40;99.90;;;;;;5024769;28;20412;-47
2022/11/01 00:25:59;;;;;;;26.20;16.42;;;12.40;99.90;;;;;;5022016;28;20018;-47
2022/11/01 00:28:25;;;;;;;25.80;16.35;;;12.40;99.90;;;;;;5021683;28;20462;-51
2022/11/01 00:30:52;;;;;;;26.55;16.33;;;12.50;99.90;;;;;;5023380;28;20065;-53
2022/11/01 00:33:18;;;;;;;20.92;15.55;;;12.40;99.90;;;;;;5021357;28;20025;-50
2022/11/01 00:35:45;;;;;;;26.85;15.85;;;12.50;99.90;;;;;;5017404;28;20476;-51
2022/11/01 00:38:11;;;;;;;22.73;15.95;;;12.50;99.90;;;;;;5018782;28;20544;-48
2022/11/01 00:40:36;;;;;;;24.10;16.10;;;12.50;99.90;;;;;;5010747;28;20118;-49
2022/11/01 00:43:02;;;;;;;26.02;15.25;;;12.50;99.90;;;;;;5015114;28;20048;-47
2022/11/01 00:45:28;;;;;;;22.73;14.77;;;12.50;99.90;;;;;;5015796;28;20034;-47
2022/11/01 00:47:53;;;;;;;24.33;16.73;;;12.50;99.90;;;;;;5021009;28;20033;-50
2022/11/01 00:50:19;;;;;;;26.38;15.77;;;12.50;99.90;;;;;;5021946;28;20052;-47
2022/11/01 00:52:44;;;;;;;22.92;16.48;;;12.50;99.90;;;;;;5013405;28;20029;-48
2022/11/01 00:55:10;;;;;;;25.85;15.27;;;12.50;99.90;;;;;;5022788;28;20022;-48
2022/11/01 00:57:35;;;;;;;22.10;15.63;;;12.40;99.90;;;;;;5023336;28;20029;-53
2022/11/01 01:00:03;;;;;;;23.85;15.70;;;12.50;99.90;;;;;;5021709;28;20022;-47
2022/11/01 01:02:28;;;;;;;23.83;15.45;;;12.50;99.90;;;;;;5018268;28;20032;-47
2022/11/01 01:04:54;;;;;;;23.85;15.15;;;12.50;99.90;;;;;;5020609;28;20029;-50
2022/11/01 01:07:19;;;;;;;24.33;16.45;;;12.40;99.90;;;;;;5017344;28;20025;-48
2022/11/01 01:09:45;;;;;;;21.52;15.80;;;12.40;99.90;;;;;;5015944;28;20029;-49
2022/11/01 01:12:10;;;;;;;22.55;15.45;;;12.40;99.90;;;;;;5017346;28;20440;-47
2022/11/01 01:14:36;;;;;;;24.48;16.73;;;12.40;99.90;;;;;;5020237;28;20467;-47
2022/11/01 01:17:02;;;;;;;25.98;16.63;;;12.50;99.90;;;;;;5019230;28;20515;-46
2022/11/01 01:19:29;;;;;;;23.77;15.98;;;12.40;99.90;;;;;;5019676;28;20030;-48
2022/11/01 01:21:55;;;;;;;26.70;17.70;;;12.50;99.90;;;;;;5020099;28;20460;-49
2022/11/01 01:24:21;;;;;;;23.88;15.80;;;12.50;99.90;;;;;;5018628;28;20105;-50
2022/11/01 01:26:47;;;;;;;25.45;17.73;;;12.50;99.90;;;;;;5021641;28;20021;-49
2022/11/01 01:29:12;;;;;;;28.73;17.27;;;12.50;99.90;;;;;;5019509;28;20492;-48
2022/11/01 01:31:38;;;;;;;27.60;17.13;;;12.50;99.90;;;;;;5023807;28;20522;-47
2022/11/01 01:34:03;;;;;;;24.48;16.17;;;12.50;99.90;;;;;;5020268;28;20400;-49
2022/11/01 01:36:29;;;;;;;28.60;17.67;;;12.50;99.90;;;;;;5023050;28;20476;-50
2022/11/01 01:38:54;;;;;;;24.70;17.25;;;12.50;99.90;;;;;;5016622;28;20628;-49
2022/11/01 01:44:42;;;;;;;25.83;17.92;;;12.50;99.90;;;;;;5025050;28;20044;-47
2022/11/01 01:47:11;;;;;;;27.60;18.42;;;12.60;99.90;;;;;;5021127;28;20029;-47
2022/11/01 01:49:37;;;;;;;26.35;16.73;;;12.50;99.90;;;;;;5020064;28;20590;-46
2022/11/01 01:52:03;;;;;;;27.85;18.27;;;12.50;99.90;;;;;;5013072;28;20030;-53
2022/11/01 01:54:30;;;;;;;24.63;17.80;;;12.60;99.90;;;;;;5017986;28;20113;-48
2022/11/01 01:56:55;;;;;;;28.88;18.73;;;12.60;99.90;;;;;;5017550;28;20101;-49
2022/11/01 01:59:21;;;;;;;28.67;19.35;;;12.60;99.90;;;;;;5017258;28;20112;-48
2022/11/01 02:01:47;;;;;;;26.45;19.20;;;12.60;99.90;;;;;;5013009;28;20060;-53
2022/11/01 02:04:23;;;;;;;28.88;18.88;;;12.60;99.90;;;;;;5016975;28;20522;-51
2022/11/01 02:06:48;;;;;;;29.25;19.52;;;12.60;99.90;;;;;;5018348;28;20492;-47
2022/11/01 02:09:15;;;;;;;27.90;18.55;;;12.60;99.90;;;;;;5010102;28;20040;-47
2022/11/01 02:11:40;;;;;;;27.60;20.00;;;12.60;99.90;;;;;;5019385;28;20403;-49
2022/11/01 02:14:07;;;;;;;31.45;20.63;;;12.60;99.90;;;;;;5020784;28;20037;-51
2022/11/01 02:16:44;;;;;;;30.15;20.15;;;12.70;99.90;;;;;;5022128;28;20030;-47
2022/11/01 02:19:18;;;;;;;32.53;20.60;;;12.70;99.90;;;;;;5016684;28;20017;-47
2022/11/01 02:22:22;;;;;;;34.47;21.65;;;12.70;99.90;;;;;;5021387;28;20032;-49
2022/11/01 02:25:22;;;;;;;35.47;20.30;;;12.70;99.90;;;;;;5024149;28;20112;-52
2022/11/01 02:28:10;;;;;;;26.45;18.92;;;12.70;99.90;;;;;;5009866;28;20029;-51
2022/11/01 02:30:46;;;;;;;27.42;18.00;;;12.70;99.90;;;;;;5015116;28;20018;-47
2022/11/01 02:33:21;;;;;;;34.88;21.27;;;12.70;99.90;;;;;;5032443;28;20030;-50
2022/11/01 02:35:57;;;;;;;32.80;21.15;;;12.70;99.90;;;;;;5017981;28;20032;-49
2022/11/01 02:38:26;;;;;;;32.67;19.67;;;12.80;99.90;;;;;;5009049;28;20025;-49
2022/11/01 02:40:59;;;;;;;36.05;20.58;;;12.80;99.90;;;;;;5017694;28;20042;-51
2022/11/01 02:43:49;;;;;;;32.42;19.40;;;12.70;99.90;;;;;;5006821;28;20034;-47
2022/11/01 02:49:02;;;;;;;35.78;21.40;;;12.80;99.90;;;;;;5034075;28;20032;-50
2022/11/01 02:51:30;;;;;;;35.25;22.83;;;12.80;99.90;;;;;;5035784;28;20090;-51
2022/11/01 02:54:04;;;;;;;37.55;23.50;;;12.80;99.90;;;;;;5031264;28;20652;-49
2022/11/01 02:56:30;;;;;;;39.38;23.25;;;12.80;99.90;;;;;;5037736;28;20036;-51
2022/11/01 02:58:56;;;;;;;37.10;22.48;;;12.80;99.90;;;;;;5037308;28;20017;-55
2022/11/01 03:01:26;;;;;;;36.95;23.67;;;12.90;99.90;;;;;;5036646;28;20021;-50
2022/11/01 03:03:56;;;;;;;35.67;25.02;;;12.90;99.90;;;;;;5039710;28;20021;-52
2022/11/01 03:06:41;;;;;;;40.22;24.13;;;12.90;99.90;;;;;;5037076;28;20148;-50
2022/11/01 03:09:10;;;;;;;42.03;24.15;;;12.90;99.90;;;;;;5040903;28;20024;-51
2022/11/01 03:12:19;;;;;;;41.10;24.85;;;12.90;99.90;;;;;;5037062;28;20060;-54
2022/11/01 03:14:54;;;;;;;40.75;24.00;;;12.90;99.90;;;;;;5030989;28;20074;-51
2022/11/01 03:17:46;;;;;;;36.65;22.98;;;13.00;99.90;;;;;;5032985;28;20411;-50
2022/11/01 03:20:21;;;;;;;39.65;23.65;;;13.00;99.90;;;;;;5039643;28;20024;-50
2022/11/01 03:22:55;;;;;;;37.92;24.05;;;13.00;99.90;;;;;;5033294;28;20017;-51
2022/11/01 03:25:39;;;;;;;36.50;24.55;;;13.00;99.90;;;;;;5032989;28;20025;-49
2022/11/01 03:28:13;;;;;;;36.38;23.33;;;13.00;99.90;;;;;;5039611;28;20488;-49
2022/11/01 03:30:43;;;;;;;35.83;22.77;;;13.00;99.90;;;;;;5039073;28;20036;-49
2022/11/01 03:33:12;;;;;;;38.53;23.30;;;13.00;99.90;;;;;;5039124;28;21284;-52
2022/11/01 03:35:39;;;;;;;36.35;23.67;;;13.00;99.90;;;;;;5038999;28;20029;-50
2022/11/01 03:38:14;;;;;;;41.47;24.77;;;13.00;99.90;;;;;;5040123;28;20488;-50
2022/11/01 03:40:43;;;;;;;37.88;24.60;;;13.00;99.90;;;;;;5042640;28;20526;-49
2022/11/01 03:43:12;;;;;;;43.63;25.85;;;13.10;99.90;;;;;;5043616;28;20064;-51
2022/11/01 03:45:39;;;;;;;41.08;24.25;;;13.10;99.90;;;;;;5042077;28;20048;-51
2022/11/01 03:48:05;;;;;;;38.17;26.33;;;13.10;99.90;;;;;;5043139;28;20056;-52
2022/11/01 03:50:32;;;;;;;44.28;26.58;;;13.10;99.90;;;;;;5038916;28;20048;-51
2022/11/01 03:52:57;;;;;;;38.05;23.42;;;13.10;99.90;;;;;;5041542;28;20033;-49
2022/11/01 03:55:23;;;;;;;37.28;24.38;;;13.10;99.90;;;;;;5044464;28;20035;-54
2022/11/01 03:57:51;;;;;;;38.35;25.33;;;13.10;99.90;;;;;;5039567;28;20052;-53
2022/11/01 04:00:22;;;;;;;40.45;23.63;;;13.10;99.90;;;;;;5040308;28;20032;-51
2022/11/01 04:02:49;;;;;;;36.00;24.25;;;13.10;99.90;;;;;;5033169;28;20377;-49
2022/11/01 04:05:16;;;;;;;34.90;23.88;;;13.10;99.90;;;;;;5031965;28;20048;-50
2022/11/01 04:07:42;;;;;;;36.42;25.55;;;13.10;99.90;;;;;;5044631;28;20043;-52
2022/11/01 04:10:09;;;;;;;38.50;23.98;;;13.10;99.90;;;;;;5039180;28;20034;-51
2022/11/01 04:12:34;;;;;;;39.72;23.10;;;13.20;99.90;;;;;;5042694;28;20052;-49
2022/11/01 04:20:35;;;;;;;33.08;23.90;;;13.20;99.90;;;;;;5035536;28;20032;-49
2022/11/01 04:23:06;;;;;;;37.47;25.13;;;13.20;99.90;;;;;;5035142;28;20024;-52
2022/11/01 04:25:33;;;;;;;37.50;23.20;;;13.20;99.90;;;;;;5040778;28;20112;-52
2022/11/01 04:27:59;;;;;;;41.03;25.00;;;13.20;99.90;;;;;;5039969;28;20022;-51
2022/11/01 04:30:28;;;;;;;38.03;25.40;;;13.20;99.90;;;;;;5040184;28;20087;-53
2022/11/01 04:32:54;;;;;;;33.88;24.40;;;13.20;99.90;;;;;;5039085;28;20087;-51
2022/11/01 04:35:20;;;;;;;43.03;25.75;;;13.20;99.90;;;;;;5035093;28;20041;-50
2022/11/01 04:37:46;;;;;;;39.42;25.67;;;13.20;99.90;;;;;;5039136;28;20129;-51
2022/11/01 04:40:13;;;;;;;36.72;24.35;;;13.20;99.90;;;;;;5038182;28;20021;-49
2022/11/01 04:42:38;;;;;;;37.25;24.85;;;13.20;99.90;;;;;;5040110;28;20029;-54
2022/11/01 04:45:06;;;;;;;44.33;26.05;;;13.20;99.90;;;;;;5040785;28;20090;-50
2022/11/01 04:47:32;;;;;;;38.67;24.48;;;13.10;99.90;;;;;;5035845;28;20025;-50
2022/11/01 04:49:57;;;;;;;40.42;26.08;;;13.20;99.90;;;;;;5038606;28;20538;-49
2022/11/01 04:52:23;;;;;;;40.70;25.00;;;13.10;99.90;;;;;;5033679;28;20036;-52
2022/11/01 04:54:49;;;;;;;40.30;24.95;;;13.20;99.90;;;;;;5042657;28;20035;-53
2022/11/01 04:57:24;;;;;;;40.58;26.30;;;13.10;99.90;;;;;;5031881;28;20033;-51
2022/11/01 04:59:51;;;;;;;38.33;24.75;;;13.10;99.90;;;;;;5043665;28;20049;-51
2022/11/01 05:02:17;;;;;;;38.28;25.30;;;13.10;99.90;;;;;;5037485;28;20034;-49
2022/11/01 05:04:43;;;;;;;35.78;24.52;;;13.10;99.90;;;;;;5041493;28;20060;-49
2022/11/01 05:07:08;;;;;;;43.63;26.35;;;13.10;99.90;;;;;;5044217;28;20600;-51
2022/11/01 05:09:34;;;;;;;39.47;25.40;;;13.10;99.90;;;;;;5038246;28;20060;-49
2022/11/01 05:11:59;;;;;;;41.58;26.10;;;13.10;99.90;;;;;;5045793;28;20033;-52
2022/11/01 05:14:25;;;;;;;41.22;25.55;;;13.10;99.90;;;;;;5039145;28;20025;-51
2022/11/01 05:16:53;;;;;;;37.17;24.92;;;13.10;99.90;;;;;;5046704;28;20033;-51
2022/11/01 05:19:19;;;;;;;40.78;26.52;;;13.10;99.90;;;;;;5039871;28;20110;-50
2022/11/01 05:21:44;;;;;;;39.92;26.27;;;13.10;99.90;;;;;;5041281;28;20087;-49
2022/11/01 05:24:10;;;;;;;43.05;26.15;;;13.10;99.90;;;;;;5038013;28;20398;-51
2022/11/01 05:26:36;;;;;;;37.20;23.88;;;13.10;99.90;;;;;;5041007;28;20028;-49
2022/11/01 05:29:01;;;;;;;36.35;25.48;;;13.10;99.90;;;;;;5040837;28;20043;-50
2022/11/01 05:31:27;;;;;;;36.50;22.95;;;13.10;99.90;;;;;;5044316;28;20028;-50
2022/11/01 05:33:52;;;;;;;37.45;26.10;;;13.10;99.90;;;;;;5030784;28;20028;-53
2022/11/01 05:36:18;;;;;;;41.95;26.15;;;13.10;99.90;;;;;;5040978;28;20059;-53
2022/11/01 05:38:43;;;;;;;41.70;26.33;;;13.10;99.90;;;;;;5036328;28;20063;-49
2022/11/01 05:41:09;;;;;;;41.67;25.33;;;13.10;99.90;;;;;;5035473;28;20040;-52
2022/11/01 05:43:34;;;;;;;39.67;26.92;;;13.10;99.90;;;;;;5041790;28;20021;-51
2022/11/01 05:46:09;;;;;;;39.83;25.67;;;13.10;99.90;;;;;;5038284;28;20446;-56
2022/11/01 05:48:34;;;;;;;39.90;25.58;;;13.10;99.90;;;;;;5036685;28;20036;-53
2022/11/01 05:51:00;;;;;;;40.35;26.73;;;13.10;99.90;;;;;;5036919;28;20026;-51
2022/11/01 05:53:26;;;;;;;43.72;27.73;;;13.00;99.90;;;;;;5042970;28;20033;-49
2022/11/01 05:55:55;;;;;;;38.75;26.33;;;13.00;99.90;;;;;;5040123;28;20029;-51
2022/11/01 05:58:20;;;;;;;44.25;27.45;;;13.10;99.90;;;;;;5039645;28;20036;-55
2022/11/01 06:00:46;;;;;;;41.75;26.77;;;13.00;99.90;;;;;;5036943;28;20033;-49
2022/11/01 06:03:11;;;;;;;37.08;25.02;;;13.10;99.90;;;;;;5037023;28;20113;-52
2022/11/01 06:05:38;;;;;;;42.17;25.67;;;13.10;99.90;;;;;;5041794;28;20032;-53
2022/11/01 06:08:04;;;;;;;40.45;25.38;;;13.00;99.90;;;;;;5041403;28;20021;-50
2022/11/01 06:10:30;;;;;;;38.92;25.80;;;13.00;99.90;;;;;;5041647;28;20059;-50
2022/11/01 06:12:56;;;;;;;39.78;25.75;;;13.00;99.90;;;;;;5038780;28;20037;-50
2022/11/01 06:15:22;;;;;;;41.70;27.38;;;13.00;99.90;;;;;;5041046;28;20033;-50
2022/11/01 06:17:53;;;;;;;39.85;24.42;;;13.10;99.90;;;;;;5031885;28;20029;-50
2022/11/01 06:20:19;;;;;;;42.00;25.88;;;13.10;99.90;;;;;;5040701;28;20051;-51
2022/11/01 06:22:45;;;;;;;42.28;27.40;;;13.10;99.90;;;;;;5033022;28;20033;-50
2022/11/01 06:25:11;;;;;;;43.50;26.45;;;13.10;99.90;;;;;;5041058;28;20025;-50
2022/11/01 06:27:36;;;;;;;43.03;28.95;;;13.10;99.90;;;;;;5034471;28;20053;-51
2022/11/01 06:30:03;;;;;;;49.90;27.55;;;13.10;99.90;;;;;;5037947;28;20090;-50
2022/11/01 06:32:28;;;;;;;44.30;27.55;;;13.10;99.90;;;;;;5036001;28;20025;-49
2022/11/01 06:34:54;;;;;;;40.47;27.75;;;13.10;99.90;;;;;;5041015;28;20563;-52
2022/11/01 06:37:20;;;;;;;42.28;26.15;;;13.10;99.90;;;;;;5042665;28;20025;-51
2022/11/01 06:39:45;;;;;;;39.33;26.67;;;13.10;99.90;;;;;;5038290;28;20137;-50
2022/11/01 06:42:11;;;;;;;46.22;27.08;;;13.10;99.90;;;;;;5043544;28;20026;-50
2022/11/01 06:44:36;;;;;;;40.85;26.48;;;13.10;99.90;;;;;;5037537;28;20526;-50
2022/11/01 06:47:02;;;;;;;37.58;25.00;;;13.10;99.90;;;;;;5039325;28;20079;-49
2022/11/01 06:49:28;;;;;;;42.00;27.70;;;13.10;99.90;;;;;;5040144;28;20156;-51
2022/11/01 06:51:53;;;;;;;38.97;25.33;;;13.10;99.90;;;;;;5039981;28;20017;-51
2022/11/01 06:54:19;;;;;;;40.70;25.65;;;13.10;99.90;;;;;;5037617;28;20060;-50
2022/11/01 06:56:47;;;;;;;42.20;26.67;;;13.10;99.90;;;;;;5037893;28;20041;-50
2022/11/01 06:59:15;;;;;;;41.35;24.98;;;13.10;99.90;;;;;;5041759;28;20487;-51
2022/11/01 07:01:41;;;;;;;43.90;26.80;;;13.10;99.90;;;;;;5037188;28;20610;-54
2022/11/01 07:04:07;;;;;;;43.78;25.92;;;13.10;99.90;;;;;;5044271;28;20029;-54
2022/11/01 07:06:32;;;;;;;43.92;26.20;;;13.10;99.90;;;;;;5036372;28;20115;-52
2022/11/01 07:08:58;;;;;;;40.80;25.15;;;13.10;99.90;;;;;;5045274;28;20629;-49
2022/11/01 07:11:24;;;;;;;44.10;26.20;;;13.10;99.90;;;;;;5037333;28;20502;-51
2022/11/01 07:13:49;;;;;;;41.88;27.17;;;13.10;99.90;;;;;;5037243;28;20067;-51
2022/11/01 07:16:15;;;;;;;43.47;26.58;;;13.10;99.90;;;;;;5037196;28;20017;-52
2022/11/01 07:18:41;;;;;;;42.03;26.63;;;13.10;99.90;;;;;;5037403;28;20480;-51
2022/11/01 07:21:07;;;;;;;39.90;26.88;;;13.10;99.90;;;;;;5035906;28;20028;-49
2022/11/01 07:23:33;;;;;;;43.55;27.58;;;13.20;99.90;;;;;;5034692;28;20435;-51
2022/11/01 07:25:58;;;;;;;42.42;28.25;;;13.10;99.90;;;;;;5038265;28;20057;-53
2022/11/01 07:28:24;;;;;;;41.80;28.33;;;13.10;99.90;;;;;;5035152;28;20104;-53
2022/11/01 07:30:52;;;;;;;36.42;26.70;;;13.10;99.90;;;;;;5034629;28;20400;-50
2022/11/01 07:33:18;;;;;;;42.53;27.50;;;13.20;99.90;;;;;;5034779;28;20032;-53
2022/11/01 07:35:45;;;;;;;45.00;28.33;;;13.20;99.90;;;;;;5031113;28;20064;-51
2022/11/01 07:38:10;;;;;;;40.20;26.92;;;13.20;99.90;;;;;;5040216;28;20024;-50
2022/11/01 07:40:36;;;;;;;39.28;25.10;;;13.20;99.90;;;;;;5038343;28;20024;-51
2022/11/01 07:43:04;;;;;;;41.08;26.25;;;13.20;99.90;;;;;;5040091;28;20060;-50
2022/11/01 07:45:32;;;;;;;41.92;27.85;;;13.30;99.90;;;;;;5040620;28;20167;-49
2022/11/01 07:48:04;;;;;;;41.83;27.20;;;13.30;99.90;;;;;;5038109;28;20028;-49
2022/11/01 07:50:32;;;;;;;38.40;26.85;;;13.30;99.90;;;;;;5037649;28;20021;-54
2022/11/01 07:53:03;;;;;;;46.35;28.67;;;13.30;99.90;;;;;;5039723;28;20030;-50
2022/11/01 07:55:28;;;;;;;39.85;26.90;;;13.40;99.90;;;;;;5033010;28;20086;-51
2022/11/01 07:57:55;;;;;;;36.95;23.55;;;13.30;99.90;;;;;;5035592;28;20591;-49
2022/11/01 08:00:20;;;;;;;41.85;26.67;;;13.40;99.90;;;;;;5040558;28;20546;-53
2022/11/01 08:02:46;;;;;;;41.08;28.52;;;13.40;99.90;;;;;;5038963;28;20117;-50
2022/11/01 08:05:11;;;;;;;39.17;25.67;;;13.40;99.90;;;;;;5039935;28;20035;-50
2022/11/01 08:07:39;;;;;;;36.63;25.30;;;13.40;99.90;;;;;;5039443;28;20021;-49
2022/11/01 08:10:07;;;;;;;37.28;24.95;;;13.50;99.90;;;;;;5039664;28;20017;-53
2022/11/01 08:12:33;;;;;;;37.05;23.67;;;13.60;99.90;;;;;;5039718;28;20120;-50
2022/11/01 08:14:59;;;;;;;39.00;24.20;;;13.60;99.90;;;;;;5037641;28;20108;-49
2022/11/01 08:17:25;;;;;;;36.85;24.35;;;13.70;99.90;;;;;;5040481;28;20040;-52
2022/11/01 08:19:50;;;;;;;38.67;24.05;;;13.70;99.90;;;;;;5038594;28;20037;-49
2022/11/01 08:22:16;;;;;;;36.30;24.33;;;13.80;99.90;;;;;;5036105;28;20391;-49
2022/11/01 08:24:41;;;;;;;41.90;24.83;;;13.80;99.90;;;;;;5043244;28;20028;-49
2022/11/01 08:27:07;;;;;;;33.72;22.60;;;13.80;99.90;;;;;;5038475;28;20033;-49
2022/11/01 08:29:32;;;;;;;35.30;24.10;;;13.90;99.90;;;;;;5045107;28;20112;-52
2022/11/01 08:31:58;;;;;;;34.92;21.52;;;13.90;99.90;;;;;;5039997;28;20502;-51
2022/11/01 08:34:23;;;;;;;32.90;22.55;;;14.00;99.90;;;;;;5042775;28;20479;-55
2022/11/01 08:36:49;;;;;;;29.02;20.95;;;14.00;99.90;;;;;;5039523;28;20283;-52
2022/11/01 08:39:14;;;;;;;31.35;20.45;;;14.10;99.90;;;;;;5039918;28;20395;-50
2022/11/01 08:41:40;;;;;;;25.63;19.67;;;14.10;99.90;;;;;;5039220;28;20103;-50
2022/11/01 08:44:06;;;;;;;29.38;18.85;;;14.20;99.90;;;;;;5040889;28;20541;-53
2022/11/01 08:46:31;;;;;;;25.70;17.52;;;14.20;99.90;;;;;;5044069;23;20504;-54
2022/11/01 08:48:59;;;;;;;22.02;16.70;;;14.20;99.90;;;;;;5022694;28;20021;-56
2022/11/01 08:51:26;;;;;;;21.92;15.20;;;14.30;99.90;;;;;;5016840;28;20048;-55
2022/11/01 08:53:57;;;;;;;22.15;15.57;;;14.30;99.90;;;;;;5023786;28;20495;-57
2022/11/01 08:56:23;;;;;;;20.70;14.73;;;14.30;99.90;;;;;;5011144;28;20076;-52
2022/11/01 08:58:50;;;;;;;21.27;13.93;;;14.30;99.90;;;;;;5026540;28;20048;-54
2022/11/01 09:01:15;;;;;;;16.60;13.43;;;14.40;99.90;;;;;;5020269;28;20542;-56
2022/11/01 09:03:41;;;;;;;24.92;13.48;;;14.40;99.90;;;;;;5026197;28;20033;-54
2022/11/01 09:06:06;;;;;;;20.17;14.02;;;14.40;99.90;;;;;;5015730;28;20132;-60
2022/11/01 09:08:32;;;;;;;21.23;14.82;;;14.50;99.90;;;;;;5025709;28;20025;-54
2022/11/01 09:10:58;;;;;;;19.77;13.25;;;14.60;99.90;;;;;;5022302;28;20021;-55
2022/11/01 09:13:23;;;;;;;20.70;13.70;;;14.60;99.90;;;;;;5020008;28;20038;-51
2022/11/01 09:15:50;;;;;;;20.05;13.85;;;14.60;99.90;;;;;;5017400;28;20041;-56
2022/11/01 09:18:16;;;;;;;16.92;12.80;;;14.70;99.90;;;;;;5022232;28;20059;-55
2022/11/01 09:20:42;;;;;;;18.17;12.30;;;14.80;99.90;;;;;;5023443;28;20492;-54
2022/11/01 09:23:07;;;;;;;16.73;11.95;;;14.90;99.90;;;;;;5012886;28;20513;-55
2022/11/01 09:25:33;;;;;;;17.55;11.57;;;15.00;99.90;;;;;;5022679;28;20088;-57
2022/11/01 09:27:59;;;;;;;15.07;11.25;;;15.20;99.90;;;;;;5019462;28;20026;-55
2022/11/01 09:30:25;;;;;;;14.60;9.30;;;15.30;99.90;;;;;;5017438;28;20034;-57
2022/11/01 09:32:51;;;;;;;17.85;10.07;;;15.40;99.90;;;;;;5019537;28;20100;-56
2022/11/01 09:35:19;;;;;;;12.40;8.85;;;15.40;99.90;;;;;;5026330;28;20105;-55
2022/11/01 09:37:44;;;;;;;11.82;7.47;;;15.50;99.90;;;;;;5017177;28;20033;-54
2022/11/01 09:40:13;;;;;;;10.15;6.00;;;15.50;99.90;;;;;;5022601;28;20029;-56
2022/11/01 09:42:42;;;;;;;7.00;5.80;;;15.60;99.90;;;;;;5021924;28;20053;-56
2022/11/01 09:45:22;;;;;;;7.82;5.35;;;15.60;99.90;;;;;;5021712;28;20036;-52
2022/11/01 09:47:55;;;;;;;10.07;5.47;;;15.70;99.90;;;;;;5021296;28;20050;-55
2022/11/01 09:50:25;;;;;;;7.13;4.70;;;15.80;99.90;;;;;;5022850;28;20021;-54
2022/11/01 09:52:53;;;;;;;4.53;3.70;;;15.80;99.90;;;;;;5019182;28;20096;-52
2022/11/01 09:55:46;;;;;;;4.93;3.75;;;15.90;99.90;;;;;;5022399;28;20415;-54
2022/11/01 09:58:24;;;;;;;8.77;4.15;;;15.90;99.90;;;;;;5005866;28;20030;-55
2022/11/01 10:01:39;;;;;;;4.68;4.15;;;15.90;99.90;;;;;;5022429;28;20028;-51
2022/11/01 10:04:44;;;;;;;6.70;3.92;;;15.90;99.90;;;;;;4979454;28;20416;-54
2022/11/01 10:07:19;;;;;;;8.23;3.65;;;15.90;99.90;;;;;;5021541;28;20519;-48
2022/11/01 10:10:10;;;;;;;5.25;3.85;;;15.90;99.90;;;;;;5022057;28;20018;-50
2022/11/01 10:12:50;;;;;;;5.18;4.28;;;15.90;99.90;;;;;;5014490;28;20029;-53
2022/11/01 10:16:02;;;;;;;7.38;4.43;;;15.90;99.90;;;;;;5006578;28;20078;-51
2022/11/01 10:18:38;;;;;;;10.05;4.50;;;15.80;99.90;;;;;;4958012;28;20035;-56
2022/11/01 10:21:10;;;;;;;7.10;4.18;;;15.90;99.90;;;;;;5017348;28;20049;-53
2022/11/01 10:23:50;;;;;;;5.88;3.72;;;15.80;99.90;;;;;;5016096;28;20027;-52
2022/11/01 10:26:27;;;;;;;5.50;3.95;;;15.80;99.90;;;;;;5024829;28;20018;-57
2022/11/01 10:28:58;;;;;;;8.50;4.45;;;15.80;99.90;;;;;;5018461;28;20038;-53
2022/11/01 10:31:26;;;;;;;7.47;4.32;;;15.80;99.90;;;;;;5010271;28;20026;-55
2022/11/01 10:34:01;;;;;;;7.60;4.28;;;15.80;99.90;;;;;;5010471;28;20033;-54
2022/11/01 10:36:32;;;;;;;5.57;5.00;;;15.80;99.90;;;;;;5010072;28;20026;-55
2022/11/01 10:39:05;;;;;;;11.07;4.55;;;15.80;99.90;;;;;;5009946;28;20029;-51
2022/11/01 10:41:48;;;;;;;6.00;4.00;;;15.80;99.90;;;;;;5009790;28;20033;-55
2022/11/01 10:44:23;;;;;;;7.97;4.20;;;15.90;99.90;;;;;;5006803;28;20034;-52
2022/11/01 10:46:51;;;;;;;4.57;4.13;;;15.90;99.90;;;;;;5014699;28;20037;-54
2022/11/01 10:49:25;;;;;;;5.70;3.78;;;16.00;99.90;;;;;;5020440;28;20022;-55
2022/11/01 10:51:56;;;;;;;6.85;3.85;;;16.10;99.90;;;;;;5011220;28;20122;-56
2022/11/01 10:54:26;;;;;;;5.72;3.60;;;16.20;99.90;;;;;;5012384;28;20052;-57
2022/11/01 10:56:54;;;;;;;8.35;3.28;;;16.20;99.90;;;;;;5004083;28;20053;-53
2022/11/01 10:59:42;;;;;;;6.78;2.90;;;16.20;99.90;;;;;;5010986;28;20029;-53
2022/11/01 11:02:21;;;;;;;3.88;3.13;;;16.30;99.90;;;;;;5010861;28;20420;-55
2022/11/01 11:04:48;;;;;;;5.45;3.13;;;16.30;99.90;;;;;;5013097;28;20030;-57
2022/11/01 11:07:15;;;;;;;5.25;3.08;;;16.40;99.90;;;;;;5002316;28;20026;-58
2022/11/01 11:09:41;;;;;;;6.30;3.65;;;16.40;99.90;;;;;;5010971;28;20029;-56
2022/11/01 11:12:14;;;;;;;8.02;2.95;;;16.40;99.90;;;;;;5008507;28;20060;-56
2022/11/01 11:14:42;;;;;;;7.50;2.72;;;16.30;99.90;;;;;;5009650;28;20025;-58
2022/11/01 11:17:49;;;;;;;7.93;2.92;;;16.30;99.90;;;;;;5012630;28;20070;-58
2022/11/01 11:20:20;;;;;;;3.92;2.25;;;16.20;99.90;;;;;;5009892;28;20037;-58
2022/11/01 11:22:46;;;;;;;6.05;2.58;;;16.20;99.90;;;;;;5008690;28;20033;-55
2022/11/01 11:25:18;;;;;;;4.82;2.13;;;16.10;99.90;;;;;;5011640;28;20119;-56
2022/11/01 11:27:51;;;;;;;3.42;1.60;;;16.10;99.90;;;;;;5009387;28;20033;-56
2022/11/01 11:30:33;;;;;;;7.03;1.73;;;16.00;99.90;;;;;;5009671;28;20109;-56
2022/11/01 11:33:00;;;;;;;3.88;1.33;;;15.90;99.90;;;;;;5010487;28;20030;-55
2022/11/01 11:35:29;;;;;;;2.40;1.02;;;15.80;99.90;;;;;;5025287;28;20430;-56
2022/11/01 11:37:57;;;;;;;3.47;1.05;;;15.80;99.90;;;;;;5012716;28;20060;-55
2022/11/01 11:40:25;;;;;;;2.60;0.85;;;15.90;99.90;;;;;;5011867;28;20127;-52
2022/11/01 11:42:53;;;;;;;3.60;1.15;;;15.80;99.90;;;;;;5016523;28;20666;-54
2022/11/01 11:45:29;;;;;;;4.63;0.70;;;15.90;99.90;;;;;;5020714;28;20329;-49
2022/11/01 11:48:22;;;;;;;3.00;0.77;;;15.80;99.90;;;;;;5018753;28;20032;-54
2022/11/01 11:51:02;;;;;;;7.45;1.83;;;15.90;99.90;;;;;;5018658;28;20045;-57
2022/11/01 11:53:28;;;;;;;5.88;1.70;;;15.90;99.90;;;;;;5016558;28;20033;-59
2022/11/01 11:56:00;;;;;;;5.63;1.05;;;15.90;99.90;;;;;;5020144;28;20064;-52
2022/11/01 11:58:47;;;;;;;3.80;0.88;;;16.00;99.90;;;;;;5020089;28;20029;-56
2022/11/01 12:01:24;;;;;;;7.18;1.13;;;16.00;99.90;;;;;;5020653;28;20026;-55
2022/11/01 12:04:08;;;;;;;3.75;1.15;;;16.00;99.90;;;;;;5027957;28;20017;-54
2022/11/01 12:06:40;;;;;;;3.75;1.27;;;16.00;99.90;;;;;;5019629;28;20044;-57
2022/11/01 12:09:43;;;;;;;2.63;0.70;;;16.00;99.90;;;;;;5028367;28;20022;-57
2022/11/01 12:12:23;;;;;;;8.45;1.77;;;16.00;99.90;;;;;;5022696;28;20080;-53
2022/11/01 12:14:48;;;;;;;5.68;1.63;;;16.00;99.90;;;;;;5016837;28;20030;-54
2022/11/01 12:17:42;;;;;;;7.53;1.65;;;16.10;99.90;;;;;;5011936;28;20105;-57
2022/11/01 12:20:19;;;;;;;4.18;1.48;;;16.10;99.90;;;;;;5014590;28;20515;-55
2022/11/01 12:23:00;;;;;;;6.50;1.83;;;16.00;99.90;;;;;;5016422;28;20026;-59
2022/11/01 12:25:25;;;;;;;5.18;2.22;;;16.00;99.90;;;;;;5012342;28;20017;-52
2022/11/01 12:27:55;;;;;;;4.30;1.25;;;16.00;99.90;;;;;;5020710;28;20488;-52
2022/11/01 12:30:23;;;;;;;6.85;1.35;;;16.00;99.90;;;;;;5025329;28;20018;-57
2022/11/01 12:32:58;;;;;;;7.47;1.80;;;16.00;99.90;;;;;;5013987;28;20025;-55
2022/11/01 12:35:34;;;;;;;5.78;1.48;;;15.90;99.90;;;;;;5026029;28;20499;-55
2022/11/01 12:38:22;;;;;;;7.85;1.77;;;15.90;99.90;;;;;;5014393;28;20042;-54
2022/11/01 12:40:51;;;;;;;9.85;1.48;;;15.90;99.90;;;;;;5021712;28;20033;-60
2022/11/01 12:43:32;;;;;;;6.22;1.27;;;15.90;99.90;;;;;;5014732;28;20634;-52
2022/11/01 12:46:06;;;;;;;8.45;1.80;;;15.90;99.90;;;;;;5012951;28;20029;-55
2022/11/01 12:48:38;;;;;;;4.25;1.48;;;15.90;99.90;;;;;;5022755;28;20020;-53
2022/11/01 12:51:11;;;;;;;7.63;1.58;;;15.90;99.90;;;;;;5016201;28;20029;-52
2022/11/01 12:53:43;;;;;;;6.97;1.73;;;15.90;99.90;;;;;;5024220;28;20021;-52
2022/11/01 12:56:09;;;;;;;4.78;1.48;;;15.80;99.90;;;;;;5012064;28;20554;-56